createdAt,value
2023-03-16T00:02:20.329Z,6.91
2023-03-16T00:04:47.610Z,6.92
2023-03-16T00:07:15.148Z,6.94
2023-03-16T00:09:42.435Z,6.95
2023-03-16T00:12:16.358Z,6.95
2023-03-16T00:14:48.924Z,6.96
2023-03-16T00:17:21.538Z,6.96
2023-03-16T00:19:56.007Z,6.97
2023-03-16T00:22:30.712Z,6.99
2023-03-16T00:24:57.980Z,6.99
2023-03-16T00:27:26.453Z,7.01
2023-03-16T00:29:57.180Z,7.01
2023-03-16T00:32:27.868Z,7.04
2023-03-16T00:34:54.699Z,7.04
2023-03-16T00:37:23.700Z,7.06
2023-03-16T00:39:51.494Z,7.06
2023-03-16T00:42:19.628Z,7.09
2023-03-16T00:44:46.785Z,7.09
2023-03-16T00:47:14.458Z,7.10
2023-03-16T00:49:43.356Z,7.12
2023-03-16T00:52:15.446Z,7.12
2023-03-16T00:54:46.872Z,7.14
2023-03-16T00:57:17.564Z,7.14
2023-03-16T00:59:46.507Z,7.16
2023-03-16T01:02:14.407Z,7.18
2023-03-16T01:04:41.497Z,7.18
2023-03-16T01:07:11.004Z,7.21
2023-03-16T01:09:38.447Z,7.21
2023-03-16T01:12:06.666Z,7.22
2023-03-16T01:14:34.973Z,7.22
2023-03-16T01:17:02.852Z,7.24
2023-03-16T01:19:30.312Z,7.25
2023-03-16T01:21:56.835Z,7.27
2023-03-16T01:24:24.316Z,7.27
2023-03-16T01:26:50.968Z,7.30
2023-03-16T01:29:17.452Z,7.29
2023-03-16T01:31:43.969Z,7.30
2023-03-16T01:34:16.539Z,7.31
2023-03-16T01:36:46.057Z,7.34
2023-03-16T01:39:13.794Z,7.35
2023-03-16T01:41:42.019Z,7.37
2023-03-16T01:44:30.648Z,7.38
2023-03-16T01:46:57.781Z,7.39
2023-03-16T01:49:30.624Z,7.39
2023-03-16T01:52:02.325Z,7.42
2023-03-16T01:54:33.914Z,7.43
2023-03-16T01:57:04.839Z,7.46
2023-03-16T01:59:38.261Z,7.45
2023-03-16T02:02:06.275Z,7.47
2023-03-16T02:04:42.343Z,7.48
2023-03-16T02:07:10.393Z,7.50
2023-03-16T02:09:42.720Z,7.52
2023-03-16T02:12:17.869Z,7.52
2023-03-16T02:14:51.570Z,7.54
2023-03-16T02:17:22.055Z,7.55
2023-03-16T02:20:09.189Z,7.56
2023-03-16T02:22:43.324Z,7.58
2023-03-16T02:25:10.860Z,7.60
2023-03-16T02:27:40.842Z,7.63
2023-03-16T02:30:11.827Z,7.63
2023-03-16T02:32:40.501Z,7.64
2023-03-16T02:35:08.357Z,7.66
2023-03-16T02:37:35.325Z,7.67
2023-03-16T02:40:09.777Z,7.69
2023-03-16T02:42:36.320Z,7.71
2023-03-16T02:45:02.888Z,7.72
2023-03-16T02:47:41.779Z,7.73
2023-03-16T02:50:10.500Z,7.74
2023-03-16T02:52:38.440Z,7.75
2023-03-16T02:55:08.935Z,7.76
2023-03-16T02:57:35.760Z,7.77
2023-03-16T03:00:02.378Z,7.80
2023-03-16T03:02:28.925Z,7.81
2023-03-16T03:04:55.456Z,7.82
2023-03-16T03:07:22.144Z,7.84
2023-03-16T03:09:48.654Z,7.85
2023-03-16T03:12:15.167Z,7.88
2023-03-16T03:14:41.810Z,7.90
2023-03-16T03:17:10.133Z,7.92
2023-03-16T03:19:36.891Z,7.92
2023-03-16T03:22:06.347Z,7.94
2023-03-16T03:24:34.455Z,7.96
2023-03-16T03:27:01.264Z,7.98
2023-03-16T03:29:34.658Z,8.00
2023-03-16T03:32:02.038Z,8.01
2023-03-16T03:34:29.420Z,8.02
2023-03-16T03:36:56.268Z,8.04
2023-03-16T03:39:22.818Z,8.07
2023-03-16T03:41:49.324Z,8.08
2023-03-16T03:44:15.859Z,8.11
2023-03-16T03:46:42.539Z,8.12
2023-03-16T03:49:09.079Z,8.15
2023-03-16T03:51:35.583Z,8.15
2023-03-16T03:54:02.074Z,8.17
2023-03-16T03:56:28.546Z,8.19
2023-03-16T03:58:55.074Z,8.21
2023-03-16T04:01:21.654Z,8.23
2023-03-16T04:03:48.953Z,8.25
2023-03-16T04:06:15.970Z,8.28
2023-03-16T04:08:42.671Z,8.28
2023-03-16T04:11:09.823Z,8.29
2023-03-16T04:13:36.361Z,8.31
2023-03-16T04:16:02.982Z,8.33
2023-03-16T04:18:30.400Z,8.34
2023-03-16T04:20:56.988Z,8.35
2023-03-16T04:23:25.078Z,8.38
2023-03-16T04:25:51.895Z,8.39
2023-03-16T04:28:18.461Z,8.42
2023-03-16T04:30:45.003Z,8.43
2023-03-16T04:33:11.619Z,8.45
2023-03-16T04:35:38.816Z,8.47
2023-03-16T04:38:05.481Z,8.47
2023-03-16T04:40:31.999Z,8.50
2023-03-16T04:42:58.508Z,8.50
2023-03-16T04:45:25.008Z,8.54
2023-03-16T04:47:51.488Z,8.54
2023-03-16T04:50:18.058Z,8.56
2023-03-16T04:52:44.564Z,8.57
2023-03-16T04:55:12.081Z,8.57
2023-03-16T04:57:38.612Z,8.59
2023-03-16T05:00:14.004Z,8.61
2023-03-16T05:02:40.528Z,8.62
2023-03-16T05:05:07.673Z,8.65
2023-03-16T05:07:34.312Z,8.66
2023-03-16T05:10:00.870Z,8.67
2023-03-16T05:12:27.601Z,8.69
2023-03-16T05:14:54.099Z,8.70
2023-03-16T05:17:23.699Z,8.72
2023-03-16T05:19:50.237Z,8.74
2023-03-16T05:22:17.019Z,8.76
2023-03-16T05:24:43.635Z,8.78
2023-03-16T05:27:10.217Z,8.79
2023-03-16T05:29:37.069Z,8.80
2023-03-16T05:32:03.992Z,8.82
2023-03-16T05:34:31.635Z,8.82
2023-03-16T05:36:58.442Z,8.84
2023-03-16T05:39:25.009Z,8.87
2023-03-16T05:41:51.495Z,8.87
2023-03-16T05:44:18.008Z,8.88
2023-03-16T05:46:45.912Z,8.90
2023-03-16T05:49:13.134Z,8.91
2023-03-16T05:51:39.747Z,8.93
2023-03-16T05:54:06.328Z,8.93
2023-03-16T05:56:32.836Z,8.95
2023-03-16T05:59:00.408Z,8.96
2023-03-16T06:01:27.277Z,8.97
2023-03-16T06:03:54.084Z,8.99
2023-03-16T06:06:22.964Z,8.99
2023-03-16T06:08:49.569Z,9.00
2023-03-16T06:11:16.203Z,9.02
2023-03-16T06:13:43.137Z,9.01
2023-03-16T06:16:11.616Z,9.04
2023-03-16T06:18:38.256Z,9.05
2023-03-16T06:21:04.849Z,9.07
2023-03-16T06:23:31.448Z,9.08
2023-03-16T06:25:59.649Z,9.07
2023-03-16T06:28:26.211Z,9.08
2023-03-16T06:30:56.966Z,9.08
2023-03-16T06:33:24.048Z,9.10
2023-03-16T06:35:51.847Z,9.10
2023-03-16T06:38:19.619Z,9.11
2023-03-16T06:40:46.283Z,9.10
2023-03-16T06:43:12.763Z,9.11
2023-03-16T06:45:39.556Z,9.11
2023-03-16T06:48:07.089Z,9.11
2023-03-16T06:50:33.694Z,9.12
2023-03-16T06:53:00.191Z,9.13
2023-03-16T06:55:26.674Z,9.15
2023-03-16T06:57:53.206Z,9.15
2023-03-16T07:00:20.150Z,9.15
2023-03-16T07:02:46.690Z,9.16
2023-03-16T07:05:13.374Z,9.17
2023-03-16T07:07:43.136Z,9.18
2023-03-16T07:10:15.885Z,9.20
2023-03-16T07:12:42.535Z,9.20
2023-03-16T07:15:10.190Z,9.20
2023-03-16T07:17:36.850Z,9.22
2023-03-16T07:20:05.921Z,9.23
2023-03-16T07:22:32.845Z,9.27
2023-03-16T07:24:59.462Z,9.26
2023-03-16T07:27:26.063Z,9.28
2023-03-16T07:29:53.875Z,9.31
2023-03-16T07:32:21.673Z,9.32
2023-03-16T07:34:48.622Z,9.33
2023-03-16T07:37:17.158Z,9.36
2023-03-16T07:39:44.845Z,9.38
2023-03-16T07:42:11.372Z,9.40
2023-03-16T07:44:37.957Z,9.43
2023-03-16T07:47:04.658Z,9.45
2023-03-16T07:49:31.379Z,9.46
2023-03-16T07:51:58.329Z,9.48
2023-03-16T07:54:24.857Z,9.49
2023-03-16T07:56:51.380Z,9.52
2023-03-16T07:59:20.404Z,9.54
2023-03-16T08:01:48.971Z,9.57
2023-03-16T08:04:15.588Z,9.57
2023-03-16T08:06:42.493Z,9.59
2023-03-16T08:09:09.529Z,9.61
2023-03-16T08:11:36.179Z,9.63
2023-03-16T08:14:02.788Z,9.64
2023-03-16T08:16:29.469Z,9.66
2023-03-16T08:18:57.198Z,9.70
2023-03-16T08:21:24.030Z,9.71
2023-03-16T08:23:50.856Z,9.73
2023-03-16T08:26:19.202Z,9.74
2023-03-16T08:28:47.310Z,9.75
2023-03-16T08:31:15.348Z,9.77
2023-03-16T08:33:46.901Z,9.78
2023-03-16T08:36:15.565Z,9.80
2023-03-16T08:38:44.168Z,9.81
2023-03-16T08:41:12.562Z,9.82
2023-03-16T08:43:39.093Z,9.84
2023-03-16T08:46:06.757Z,9.86
2023-03-16T08:48:33.627Z,9.89
2023-03-16T08:51:04.244Z,9.91
2023-03-16T08:53:30.828Z,9.94
2023-03-16T08:56:12.420Z,9.97
2023-03-16T08:58:39.502Z,10.00
2023-03-16T09:01:06.760Z,10.03
2023-03-16T09:03:33.489Z,10.06
2023-03-16T09:06:05.824Z,10.11
2023-03-16T09:08:33.128Z,10.14
2023-03-16T09:11:14.887Z,10.18
2023-03-16T09:13:42.915Z,10.22
2023-03-16T09:16:12.226Z,10.24
2023-03-16T09:18:39.971Z,10.26
2023-03-16T09:21:08.340Z,10.32
2023-03-16T09:23:37.577Z,10.35
2023-03-16T09:26:07.487Z,10.37
2023-03-16T09:28:36.067Z,10.41
2023-03-16T09:31:03.339Z,10.42
2023-03-16T09:33:32.118Z,10.43
2023-03-16T09:35:59.714Z,10.46
2023-03-16T09:38:26.761Z,10.47
2023-03-16T09:41:08.674Z,10.47
2023-03-16T09:44:02.995Z,10.50
2023-03-16T09:46:38.591Z,10.50
2023-03-16T09:49:05.345Z,10.50
2023-03-16T09:51:58.995Z,10.51
2023-03-16T09:54:56.830Z,10.54
2023-03-16T09:57:31.611Z,10.53
2023-03-16T10:00:21.150Z,10.54
2023-03-16T10:03:45.256Z,10.56
2023-03-16T10:06:13.861Z,10.59
2023-03-16T10:08:43.922Z,10.62
2023-03-16T10:11:42.818Z,10.65
2023-03-16T10:14:21.786Z,10.66
2023-03-16T10:16:56.826Z,10.70
2023-03-16T10:19:29.065Z,10.73
2023-03-16T10:21:58.432Z,10.76
2023-03-16T10:25:03.532Z,10.81
2023-03-16T10:27:33.038Z,10.84
2023-03-16T10:30:01.703Z,10.86
2023-03-16T10:32:32.353Z,10.90
2023-03-16T10:35:06.312Z,10.94
2023-03-16T10:37:32.929Z,10.96
2023-03-16T10:40:00.787Z,10.98
2023-03-16T10:42:27.591Z,11.02
2023-03-16T10:45:01.600Z,11.05
2023-03-16T10:47:31.481Z,11.08
2023-03-16T10:49:58.308Z,11.10
2023-03-16T10:52:24.956Z,11.14
2023-03-16T10:54:56.603Z,11.18
2023-03-16T10:57:27.257Z,11.20
2023-03-16T10:59:59.430Z,11.22
2023-03-16T11:02:33.284Z,11.24
2023-03-16T11:05:01.003Z,11.28
2023-03-16T11:07:27.724Z,11.30
2023-03-16T11:09:58.739Z,11.33
2023-03-16T11:12:31.148Z,11.36
2023-03-16T11:15:20.139Z,11.39
2023-03-16T11:17:55.837Z,11.42
2023-03-16T11:20:26.707Z,11.44
2023-03-16T11:22:53.234Z,11.45
2023-03-16T11:25:29.003Z,11.48
2023-03-16T11:28:17.830Z,11.49
2023-03-16T11:30:53.689Z,11.50
2023-03-16T11:33:22.199Z,11.51
2023-03-16T11:36:01.075Z,11.55
2023-03-16T11:38:44.071Z,11.54
2023-03-16T11:41:16.486Z,11.57
2023-03-16T11:44:10.394Z,11.59
2023-03-16T11:46:41.958Z,11.60
2023-03-16T11:49:44.314Z,11.62
2023-03-16T11:52:29.679Z,11.66
2023-03-16T11:55:17.602Z,11.66
2023-03-16T11:57:46.966Z,11.68
2023-03-16T12:00:35.264Z,11.70
2023-03-16T12:03:34.112Z,11.71
2023-03-16T12:06:07.769Z,11.73
2023-03-16T12:09:17.671Z,11.77
2023-03-16T12:11:44.676Z,11.82
2023-03-16T12:14:11.111Z,11.87
2023-03-16T12:17:01.202Z,11.92
2023-03-16T12:19:47.160Z,11.97
2023-03-16T12:22:34.817Z,12.02
2023-03-16T12:25:04.183Z,12.07
2023-03-16T12:27:36.627Z,12.10
2023-03-16T12:30:35.636Z,12.15
2023-03-16T12:33:20.842Z,12.21
2023-03-16T12:36:18.191Z,12.27
2023-03-16T12:39:05.395Z,12.31
2023-03-16T12:41:38.086Z,12.35
2023-03-16T12:44:28.094Z,12.39
2023-03-16T12:47:13.077Z,12.42
2023-03-16T12:49:40.234Z,12.45
2023-03-16T12:52:11.328Z,12.47
2023-03-16T12:54:52.045Z,12.51
2023-03-16T12:57:19.608Z,12.51
2023-03-16T12:59:50.712Z,12.52
2023-03-16T13:02:38.784Z,12.54
2023-03-16T13:05:09.730Z,12.54
2023-03-16T13:07:38.464Z,12.55
2023-03-16T13:10:08.742Z,12.56
2023-03-16T13:12:37.888Z,12.56
2023-03-16T13:15:20.214Z,12.58
2023-03-16T13:18:09.966Z,12.57
2023-03-16T13:20:48.329Z,12.58
2023-03-16T13:23:24.127Z,12.59
2023-03-16T13:26:11.104Z,12.60
2023-03-16T13:28:38.971Z,12.61
2023-03-16T13:31:24.435Z,12.64
2023-03-16T13:33:55.810Z,12.65
2023-03-16T13:36:24.541Z,12.66
2023-03-16T13:39:14.483Z,12.70
2023-03-16T13:41:43.282Z,12.71
2023-03-16T13:44:15.307Z,12.71
2023-03-16T13:46:41.824Z,12.74
2023-03-16T13:49:12.107Z,12.75
2023-03-16T13:51:38.809Z,12.76
2023-03-16T13:54:29.884Z,12.75
2023-03-16T13:56:59.685Z,12.76
2023-03-16T13:59:26.420Z,12.77
2023-03-16T14:02:01.862Z,12.78
2023-03-16T14:04:31.435Z,12.79
2023-03-16T14:07:03.818Z,12.79
2023-03-16T14:09:34.560Z,12.80
2023-03-16T14:12:02.430Z,12.80
2023-03-16T14:14:36.812Z,12.81
2023-03-16T14:17:11.885Z,12.83
2023-03-16T14:20:02.688Z,12.84
2023-03-16T14:22:38.323Z,12.85
2023-03-16T14:25:06.053Z,12.86
2023-03-16T14:27:43.891Z,12.85
2023-03-16T14:30:20.237Z,12.88
2023-03-16T14:33:01.253Z,12.88
2023-03-16T14:35:32.035Z,12.90
2023-03-16T14:38:36.986Z,12.92
2023-03-16T14:41:25.935Z,12.93
2023-03-16T14:44:03.092Z,12.96
2023-03-16T14:46:37.776Z,12.99
2023-03-16T14:49:21.136Z,13.00
2023-03-16T14:51:51.083Z,13.02
2023-03-16T14:54:24.209Z,13.06
2023-03-16T14:56:53.096Z,13.10
2023-03-16T14:59:20.883Z,13.14
2023-03-16T15:01:49.600Z,13.19
2023-03-16T15:04:25.697Z,13.22
2023-03-16T15:06:52.194Z,13.23
2023-03-16T15:09:31.681Z,13.26
2023-03-16T15:11:58.348Z,13.29
2023-03-16T15:14:43.524Z,13.33
2023-03-16T15:17:10.993Z,13.36
2023-03-16T15:19:37.811Z,13.38
2023-03-16T15:22:05.311Z,13.40
2023-03-16T15:24:33.342Z,13.42
2023-03-16T15:27:00.749Z,13.44
2023-03-16T15:29:27.341Z,13.45
2023-03-16T15:31:54.662Z,13.46
2023-03-16T15:34:22.531Z,13.47
2023-03-16T15:36:49.386Z,13.48
2023-03-16T15:39:25.234Z,13.50
2023-03-16T15:41:51.856Z,13.52
2023-03-16T15:44:18.417Z,13.52
2023-03-16T15:46:45.035Z,13.53
2023-03-16T15:49:11.696Z,13.54
2023-03-16T15:51:38.231Z,13.54
2023-03-16T15:54:08.523Z,13.55
2023-03-16T15:56:53.189Z,13.54
2023-03-16T15:59:23.218Z,13.52
2023-03-16T16:01:50.553Z,13.52
2023-03-16T16:04:19.902Z,13.50
2023-03-16T16:06:48.355Z,13.49
2023-03-16T16:09:15.778Z,13.47
2023-03-16T16:11:42.551Z,13.47
2023-03-16T16:14:16.486Z,13.44
2023-03-16T16:16:45.989Z,13.42
2023-03-16T16:19:16.739Z,13.41
2023-03-16T16:21:43.472Z,13.40
2023-03-16T16:24:10.716Z,13.38
2023-03-16T16:26:49.919Z,13.37
2023-03-16T16:29:22.429Z,13.34
2023-03-16T16:31:49.213Z,13.33
2023-03-16T16:34:18.098Z,13.32
2023-03-16T16:36:45.128Z,13.26
2023-03-16T16:39:11.905Z,13.26
2023-03-16T16:41:39.590Z,13.23
2023-03-16T16:44:13.868Z,13.19
2023-03-16T16:46:42.533Z,13.15
2023-03-16T16:49:30.639Z,13.08
2023-03-16T16:51:58.274Z,13.04
2023-03-16T16:54:28.085Z,13.01
2023-03-16T16:56:56.548Z,12.95
2023-03-16T16:59:25.754Z,12.89
2023-03-16T17:01:54.048Z,12.86
2023-03-16T17:04:23.523Z,12.80
2023-03-16T17:06:52.252Z,12.76
2023-03-16T17:09:19.005Z,12.70
2023-03-16T17:11:46.014Z,12.67
2023-03-16T17:14:18.035Z,12.66
2023-03-16T17:16:48.691Z,12.63
2023-03-16T17:19:24.395Z,12.56
2023-03-16T17:21:52.872Z,12.52
2023-03-16T17:24:19.487Z,12.50
2023-03-16T17:26:49.411Z,12.51
2023-03-16T17:29:22.593Z,12.46
2023-03-16T17:31:50.328Z,12.44
2023-03-16T17:34:28.053Z,12.39
2023-03-16T17:36:55.324Z,12.37
2023-03-16T17:39:27.128Z,12.34
2023-03-16T17:41:56.751Z,12.30
2023-03-16T17:44:24.813Z,12.29
2023-03-16T17:46:51.506Z,12.27
2023-03-16T17:49:19.992Z,12.23
2023-03-16T17:51:47.860Z,12.19
2023-03-16T17:54:14.502Z,12.16
2023-03-16T17:56:41.825Z,12.16
2023-03-16T17:59:16.420Z,12.17
2023-03-16T18:01:44.334Z,12.14
2023-03-16T18:04:17.882Z,12.12
2023-03-16T18:06:47.090Z,12.07
2023-03-16T18:09:15.828Z,12.07
2023-03-16T18:11:48.280Z,12.04
2023-03-16T18:14:25.458Z,12.04
2023-03-16T18:16:52.964Z,12.02
2023-03-16T18:19:27.202Z,11.98
2023-03-16T18:21:53.826Z,11.97
2023-03-16T18:24:22.269Z,11.97
2023-03-16T18:26:48.828Z,11.95
2023-03-16T18:29:17.677Z,11.92
2023-03-16T18:31:45.827Z,11.87
2023-03-16T18:34:23.910Z,11.87
2023-03-16T18:36:53.177Z,11.83
2023-03-16T18:39:21.277Z,11.81
2023-03-16T18:41:48.230Z,11.80
2023-03-16T18:44:20.723Z,11.80
2023-03-16T18:46:48.741Z,11.78
2023-03-16T18:49:26.474Z,11.77
2023-03-16T18:51:54.620Z,11.78
2023-03-16T18:54:25.230Z,11.76
2023-03-16T18:56:53.802Z,11.74
2023-03-16T18:59:21.189Z,11.72
2023-03-16T19:01:48.321Z,11.73
2023-03-16T19:04:23.912Z,11.74
2023-03-16T19:06:53.431Z,11.72
2023-03-16T19:09:24.474Z,11.70
2023-03-16T19:11:52.633Z,11.67
2023-03-16T19:14:33.032Z,11.66
2023-03-16T19:16:59.610Z,11.68
2023-03-16T19:19:27.492Z,11.66
2023-03-16T19:21:58.874Z,11.66
2023-03-16T19:24:28.953Z,11.67
2023-03-16T19:26:57.842Z,11.64
2023-03-16T19:29:31.532Z,11.63
2023-03-16T19:31:58.964Z,11.62
2023-03-16T19:34:25.984Z,11.61
2023-03-16T19:36:52.636Z,11.60
2023-03-16T19:39:20.665Z,11.60
2023-03-16T19:41:53.861Z,11.60
2023-03-16T19:44:22.704Z,11.58
2023-03-16T19:46:50.257Z,11.59
2023-03-16T19:49:22.822Z,11.56
2023-03-16T19:51:51.507Z,11.53
2023-03-16T19:54:32.072Z,11.57
2023-03-16T19:57:02.131Z,11.53
2023-03-16T19:59:32.711Z,11.54
2023-03-16T20:01:59.897Z,11.53
2023-03-16T20:04:28.349Z,11.53
2023-03-16T20:06:54.886Z,11.53
2023-03-16T20:09:22.520Z,11.53
2023-03-16T20:11:50.132Z,11.52
2023-03-16T20:14:35.087Z,11.50
2023-03-16T20:17:02.046Z,11.51
2023-03-16T20:19:28.662Z,11.51
2023-03-16T20:21:55.361Z,11.51
2023-03-16T20:24:22.297Z,11.51
2023-03-16T20:26:51.411Z,11.51
2023-03-16T20:29:31.300Z,11.49
2023-03-16T20:31:58.677Z,11.49
2023-03-16T20:34:28.385Z,11.47
2023-03-16T20:36:55.904Z,11.48
2023-03-16T20:39:22.638Z,11.47
2023-03-16T20:41:50.533Z,11.47
2023-03-16T20:44:22.143Z,11.47
2023-03-16T20:46:49.048Z,11.47
2023-03-16T20:49:30.048Z,11.46
2023-03-16T20:51:57.007Z,11.46
2023-03-16T20:54:23.674Z,11.46
2023-03-16T20:56:50.315Z,11.46
2023-03-16T20:59:20.362Z,11.46
2023-03-16T21:01:49.792Z,11.46
2023-03-16T21:04:22.441Z,11.45
2023-03-16T21:06:50.906Z,11.45
2023-03-16T21:09:18.985Z,11.43
2023-03-16T21:11:46.154Z,11.43
2023-03-16T21:14:20.892Z,11.42
2023-03-16T21:16:47.802Z,11.43
2023-03-16T21:19:23.099Z,11.44
2023-03-16T21:21:49.869Z,11.44
2023-03-16T21:24:16.525Z,11.43
2023-03-16T21:26:44.626Z,11.43
2023-03-16T21:29:16.362Z,11.43
2023-03-16T21:31:43.175Z,11.42
2023-03-16T21:34:23.936Z,11.41
2023-03-16T21:36:50.634Z,11.41
2023-03-16T21:39:23.559Z,11.40
2023-03-16T21:41:50.877Z,11.42
2023-03-16T21:44:18.422Z,11.39
2023-03-16T21:46:47.195Z,11.40
2023-03-16T21:49:14.936Z,11.39
2023-03-16T21:51:43.156Z,11.39
2023-03-16T21:54:14.455Z,11.38
2023-03-16T21:56:42.338Z,11.39
2023-03-16T21:59:09.076Z,11.36
2023-03-16T22:01:44.899Z,11.37
2023-03-16T22:04:17.869Z,11.37
2023-03-16T22:06:46.928Z,11.36
2023-03-16T22:09:22.907Z,11.35
2023-03-16T22:11:49.738Z,11.37
2023-03-16T22:14:18.807Z,11.34
2023-03-16T22:16:46.520Z,11.35
2023-03-16T22:19:14.596Z,11.35
2023-03-16T22:21:44.075Z,11.35
2023-03-16T22:24:30.615Z,11.35
2023-03-16T22:26:58.287Z,11.34
2023-03-16T22:29:30.904Z,11.35
2023-03-16T22:32:04.443Z,11.34
2023-03-16T22:34:38.374Z,11.33
2023-03-16T22:37:05.662Z,11.34
2023-03-16T22:39:37.708Z,11.33
2023-03-16T22:42:25.167Z,11.33
2023-03-16T22:44:51.757Z,11.36
2023-03-16T22:47:23.593Z,11.32
2023-03-16T22:49:50.469Z,11.33
2023-03-16T22:52:17.874Z,11.33
2023-03-16T22:54:46.465Z,11.33
2023-03-16T22:57:14.967Z,11.33
2023-03-16T22:59:42.250Z,11.33
2023-03-16T23:02:14.961Z,11.33
2023-03-16T23:04:41.949Z,11.32
2023-03-16T23:07:13.390Z,11.31
2023-03-16T23:09:40.663Z,11.31
2023-03-16T23:12:15.917Z,11.31
2023-03-16T23:14:43.355Z,11.32
2023-03-16T23:17:18.762Z,11.30
2023-03-16T23:19:46.002Z,11.29
2023-03-16T23:22:12.572Z,11.29
2023-03-16T23:24:39.252Z,11.29
2023-03-16T23:27:17.604Z,11.28
2023-03-16T23:29:44.296Z,11.28
2023-03-16T23:32:11.711Z,11.28
2023-03-16T23:34:38.290Z,11.27
2023-03-16T23:37:04.936Z,11.28
2023-03-16T23:39:31.611Z,11.27
2023-03-16T23:41:58.353Z,11.26
2023-03-16T23:44:27.586Z,11.26
2023-03-16T23:46:54.401Z,11.26
2023-03-16T23:49:27.195Z,11.27
2023-03-16T23:51:57.718Z,11.26
2023-03-16T23:54:27.961Z,11.26
2023-03-16T23:56:54.634Z,11.27
2023-03-16T23:59:21.444Z,11.25
